sensor_id;sensor_type;location;lat;lon;timestamp;pressure;altitude;pressure_sealevel;temperature;humidity
34586;BME280;20816;50.950;11.108;2022-12-29T00:01:02;97601.91;;;8.95;91.67
34586;BME280;20816;50.950;11.108;2022-12-29T00:03:29;97609.88;;;8.92;92.06
34586;BME280;20816;50.950;11.108;2022-12-29T00:05:57;97589.06;;;8.87;92.38
34586;BME280;20816;50.950;11.108;2022-12-29T00:08:24;97586.59;;;8.83;92.19
34586;BME280;20816;50.950;11.108;2022-12-29T00:11:07;97591.03;;;8.81;92.52
34586;BME280;20816;50.950;11.108;2022-12-29T00:13:35;97603.41;;;8.76;92.61
34586;BME280;20816;50.950;11.108;2022-12-29T00:16:20;97595.44;;;8.79;92.42
34586;BME280;20816;50.950;11.108;2022-12-29T00:18:47;97587.50;;;8.82;92.68
34586;BME280;20816;50.950;11.108;2022-12-29T00:21:20;97582.09;;;8.86;92.73
34586;BME280;20816;50.950;11.108;2022-12-29T00:24:06;97577.47;;;8.94;92.52
34586;BME280;20816;50.950;11.108;2022-12-29T00:27:08;97575.72;;;8.95;92.97
34586;BME280;20816;50.950;11.108;2022-12-29T00:29:54;97567.09;;;8.91;92.98
34586;BME280;20816;50.950;11.108;2022-12-29T00:32:40;97574.00;;;8.94;92.88
34586;BME280;20816;50.950;11.108;2022-12-29T00:35:31;97558.38;;;8.91;93.05
34586;BME280;20816;50.950;11.108;2022-12-29T00:38:02;97562.84;;;8.89;93.31
34586;BME280;20816;50.950;11.108;2022-12-29T00:40:49;97534.91;;;8.88;94.01
34586;BME280;20816;50.950;11.108;2022-12-29T00:43:34;97541.09;;;8.85;94.43
34586;BME280;20816;50.950;11.108;2022-12-29T00:46:19;97535.00;;;8.85;94.19
34586;BME280;20816;50.950;11.108;2022-12-29T00:48:46;97523.81;;;8.80;94.37
34586;BME280;20816;50.950;11.108;2022-12-29T00:51:31;97524.94;;;8.73;95.01
34586;BME280;20816;50.950;11.108;2022-12-29T00:53:58;97526.75;;;8.69;95.21
34586;BME280;20816;50.950;11.108;2022-12-29T00:56:24;97524.16;;;8.69;95.56
34586;BME280;20816;50.950;11.108;2022-12-29T00:58:51;97517.97;;;8.72;95.47
34586;BME280;20816;50.950;11.108;2022-12-29T01:01:19;97526.06;;;8.64;96.03
34586;BME280;20816;50.950;11.108;2022-12-29T01:03:46;97512.81;;;8.68;95.97
34586;BME280;20816;50.950;11.108;2022-12-29T01:06:12;97527.06;;;8.60;96.26
34586;BME280;20816;50.950;11.108;2022-12-29T01:08:39;97520.06;;;8.60;96.44
34586;BME280;20816;50.950;11.108;2022-12-29T01:11:09;97534.88;;;8.61;96.30
34586;BME280;20816;50.950;11.108;2022-12-29T01:13:36;97534.25;;;8.53;96.99
34586;BME280;20816;50.950;11.108;2022-12-29T01:16:07;97534.28;;;8.52;96.83
34586;BME280;20816;50.950;11.108;2022-12-29T01:18:34;97549.16;;;8.51;96.90
34586;BME280;20816;50.950;11.108;2022-12-29T01:21:09;97534.44;;;8.47;96.92
34586;BME280;20816;50.950;11.108;2022-12-29T01:23:36;97537.88;;;8.49;96.87
34586;BME280;20816;50.950;11.108;2022-12-29T01:26:12;97529.41;;;8.41;96.59
34586;BME280;20816;50.950;11.108;2022-12-29T01:28:41;97540.56;;;8.46;96.71
34586;BME280;20816;50.950;11.108;2022-12-29T01:31:09;97562.25;;;8.51;96.89
34586;BME280;20816;50.950;11.108;2022-12-29T01:33:36;97560.63;;;8.47;96.89
34586;BME280;20816;50.950;11.108;2022-12-29T01:36:04;97569.13;;;8.55;96.38
34586;BME280;20816;50.950;11.108;2022-12-29T01:38:33;97561.97;;;8.60;96.43
34586;BME280;20816;50.950;11.108;2022-12-29T01:41:10;97572.38;;;8.63;96.47
34586;BME280;20816;50.950;11.108;2022-12-29T01:43:55;97574.81;;;8.68;96.45
34586;BME280;20816;50.950;11.108;2022-12-29T01:46:40;97570.38;;;8.72;96.02
34586;BME280;20816;50.950;11.108;2022-12-29T01:49:22;97570.16;;;8.78;96.64
34586;BME280;20816;50.950;11.108;2022-12-29T01:51:53;97566.84;;;8.73;96.77
34586;BME280;20816;50.950;11.108;2022-12-29T01:54:29;97571.28;;;8.69;97.35
34586;BME280;20816;50.950;11.108;2022-12-29T01:56:59;97568.63;;;8.70;97.51
34586;BME280;20816;50.950;11.108;2022-12-29T01:59:34;97570.53;;;8.65;97.77
34586;BME280;20816;50.950;11.108;2022-12-29T02:02:06;97558.63;;;8.83;97.22
34586;BME280;20816;50.950;11.108;2022-12-29T02:04:38;97559.47;;;8.84;97.39
34586;BME280;20816;50.950;11.108;2022-12-29T02:07:11;97544.78;;;8.80;97.55
34586;BME280;20816;50.950;11.108;2022-12-29T02:09:41;97548.25;;;8.80;97.69
34586;BME280;20816;50.950;11.108;2022-12-29T02:12:09;97555.97;;;8.85;97.72
34586;BME280;20816;50.950;11.108;2022-12-29T02:14:38;97540.06;;;8.91;97.20
34586;BME280;20816;50.950;11.108;2022-12-29T02:20:32;97539.13;;;8.92;96.90
34586;BME280;20816;50.950;11.108;2022-12-29T02:26:13;97531.63;;;8.81;98.24
34586;BME280;20816;50.950;11.108;2022-12-29T02:29:16;97512.22;;;8.87;98.52
34586;BME280;20816;50.950;11.108;2022-12-29T02:32:05;97506.41;;;8.77;98.97
34586;BME280;20816;50.950;11.108;2022-12-29T02:37:23;97498.13;;;8.64;100.00
34586;BME280;20816;50.950;11.108;2022-12-29T02:40:04;97511.41;;;8.58;100.00
34586;BME280;20816;50.950;11.108;2022-12-29T02:42:44;97502.94;;;8.50;100.00
34586;BME280;20816;50.950;11.108;2022-12-29T02:45:31;97486.53;;;8.43;100.00
34586;BME280;20816;50.950;11.108;2022-12-29T02:48:08;97481.19;;;8.47;100.00
34586;BME280;20816;50.950;11.108;2022-12-29T02:50:53;97484.09;;;8.39;100.00
34586;BME280;20816;50.950;11.108;2022-12-29T02:53:23;97474.59;;;8.35;100.00
34586;BME280;20816;50.950;11.108;2022-12-29T02:56:10;97461.59;;;8.32;100.00
34586;BME280;20816;50.950;11.108;2022-12-29T02:58:36;97484.41;;;8.27;100.00
34586;BME280;20816;50.950;11.108;2022-12-29T03:01:23;97487.78;;;8.30;100.00
34586;BME280;20816;50.950;11.108;2022-12-29T03:07:04;97495.75;;;8.27;100.00
34586;BME280;20816;50.950;11.108;2022-12-29T03:10:02;97496.53;;;8.31;100.00
34586;BME280;20816;50.950;11.108;2022-12-29T03:15:46;97478.31;;;8.56;100.00
34586;BME280;20816;50.950;11.108;2022-12-29T03:19:02;97485.31;;;8.55;100.00
34586;BME280;20816;50.950;11.108;2022-12-29T03:21:38;97476.56;;;8.83;100.00
34586;BME280;20816;50.950;11.108;2022-12-29T03:24:31;97473.81;;;8.86;100.00
34586;BME280;20816;50.950;11.108;2022-12-29T03:27:01;97493.78;;;8.90;100.00
34586;BME280;20816;50.950;11.108;2022-12-29T03:29:33;97455.88;;;9.00;100.00
34586;BME280;20816;50.950;11.108;2022-12-29T03:32:03;97479.75;;;9.17;100.00
34586;BME280;20816;50.950;11.108;2022-12-29T03:34:33;97492.59;;;9.25;100.00
34586;BME280;20816;50.950;11.108;2022-12-29T03:37:09;97499.22;;;9.35;100.00
34586;BME280;20816;50.950;11.108;2022-12-29T03:39:37;97506.09;;;9.39;100.00
34586;BME280;20816;50.950;11.108;2022-12-29T03:42:10;97519.03;;;9.44;100.00
34586;BME280;20816;50.950;11.108;2022-12-29T03:44:41;97523.09;;;9.52;100.00
34586;BME280;20816;50.950;11.108;2022-12-29T03:47:12;97513.50;;;9.53;100.00
34586;BME280;20816;50.950;11.108;2022-12-29T03:49:40;97508.25;;;9.53;100.00
34586;BME280;20816;50.950;11.108;2022-12-29T03:52:06;97502.75;;;9.59;100.00
34586;BME280;20816;50.950;11.108;2022-12-29T03:54:33;97495.06;;;9.54;100.00
34586;BME280;20816;50.950;11.108;2022-12-29T03:57:03;97501.50;;;9.46;100.00
34586;BME280;20816;50.950;11.108;2022-12-29T03:59:38;97505.91;;;9.45;100.00
34586;BME280;20816;50.950;11.108;2022-12-29T04:02:04;97496.25;;;9.46;100.00
34586;BME280;20816;50.950;11.108;2022-12-29T04:04:31;97502.19;;;9.51;100.00
34586;BME280;20816;50.950;11.108;2022-12-29T04:06:58;97502.88;;;9.56;100.00
34586;BME280;20816;50.950;11.108;2022-12-29T04:09:36;97493.25;;;9.57;100.00
34586;BME280;20816;50.950;11.108;2022-12-29T04:12:03;97497.78;;;9.51;100.00
34586;BME280;20816;50.950;11.108;2022-12-29T04:14:30;97493.41;;;9.52;100.00
34586;BME280;20816;50.950;11.108;2022-12-29T04:16:58;97483.94;;;9.48;100.00
34586;BME280;20816;50.950;11.108;2022-12-29T04:19:27;97469.31;;;9.41;100.00
34586;BME280;20816;50.950;11.108;2022-12-29T04:22:02;97460.34;;;9.23;100.00
34586;BME280;20816;50.950;11.108;2022-12-29T04:24:32;97458.56;;;9.23;100.00
34586;BME280;20816;50.950;11.108;2022-12-29T04:27:02;97457.19;;;9.13;100.00
34586;BME280;20816;50.950;11.108;2022-12-29T04:29:31;97453.75;;;9.11;100.00
34586;BME280;20816;50.950;11.108;2022-12-29T04:32:12;97452.09;;;9.09;100.00
34586;BME280;20816;50.950;11.108;2022-12-29T04:34:39;97443.25;;;9.11;100.00
34586;BME280;20816;50.950;11.108;2022-12-29T04:37:06;97434.50;;;9.12;100.00
34586;BME280;20816;50.950;11.108;2022-12-29T04:39:33;97436.22;;;9.13;100.00
34586;BME280;20816;50.950;11.108;2022-12-29T04:42:08;97438.84;;;9.13;100.00
34586;BME280;20816;50.950;11.108;2022-12-29T04:44:34;97433.59;;;9.13;100.00
34586;BME280;20816;50.950;11.108;2022-12-29T04:47:10;97438.13;;;9.08;100.00
34586;BME280;20816;50.950;11.108;2022-12-29T04:49:45;97438.13;;;9.08;100.00
34586;BME280;20816;50.950;11.108;2022-12-29T04:52:12;97433.63;;;9.12;100.00
34586;BME280;20816;50.950;11.108;2022-12-29T04:54:39;97440.69;;;9.10;100.00
34586;BME280;20816;50.950;11.108;2022-12-29T04:57:06;97436.09;;;9.16;100.00
34586;BME280;20816;50.950;11.108;2022-12-29T04:59:32;97440.56;;;9.14;100.00
34586;BME280;20816;50.950;11.108;2022-12-29T05:01:59;97444.81;;;9.17;100.00
34586;BME280;20816;50.950;11.108;2022-12-29T05:04:28;97452.53;;;9.21;100.00
34586;BME280;20816;50.950;11.108;2022-12-29T05:06:55;97460.09;;;9.31;100.00
34586;BME280;20816;50.950;11.108;2022-12-29T05:09:22;97455.63;;;9.33;100.00
34586;BME280;20816;50.950;11.108;2022-12-29T05:11:50;97460.66;;;9.39;100.00
34586;BME280;20816;50.950;11.108;2022-12-29T05:14:16;97461.72;;;9.33;100.00
34586;BME280;20816;50.950;11.108;2022-12-29T05:16:51;97466.84;;;9.36;100.00
34586;BME280;20816;50.950;11.108;2022-12-29T05:19:19;97454.50;;;9.40;100.00
34586;BME280;20816;50.950;11.108;2022-12-29T05:21:46;97457.47;;;9.31;100.00
34586;BME280;20816;50.950;11.108;2022-12-29T05:24:12;97445.50;;;9.47;100.00
34586;BME280;20816;50.950;11.108;2022-12-29T05:26:41;97453.97;;;9.55;100.00
34586;BME280;20816;50.950;11.108;2022-12-29T05:29:14;97446.75;;;9.60;100.00
34586;BME280;20816;50.950;11.108;2022-12-29T05:31:40;97445.53;;;9.70;100.00
34586;BME280;20816;50.950;11.108;2022-12-29T05:34:10;97466.34;;;9.75;100.00
34586;BME280;20816;50.950;11.108;2022-12-29T05:36:38;97454.06;;;9.75;100.00
34586;BME280;20816;50.950;11.108;2022-12-29T05:39:14;97468.63;;;9.84;100.00
34586;BME280;20816;50.950;11.108;2022-12-29T05:41:41;97469.31;;;9.89;100.00
34586;BME280;20816;50.950;11.108;2022-12-29T05:44:11;97467.19;;;9.99;100.00
34586;BME280;20816;50.950;11.108;2022-12-29T05:46:38;97462.75;;;10.01;100.00
34586;BME280;20816;50.950;11.108;2022-12-29T05:49:05;97448.81;;;9.99;100.00
34586;BME280;20816;50.950;11.108;2022-12-29T05:51:37;97453.06;;;10.03;100.00
34586;BME280;20816;50.950;11.108;2022-12-29T05:54:04;97449.44;;;10.05;100.00
34586;BME280;20816;50.950;11.108;2022-12-29T05:56:31;97450.00;;;10.14;100.00
34586;BME280;20816;50.950;11.108;2022-12-29T05:58:58;97454.22;;;10.18;100.00
34586;BME280;20816;50.950;11.108;2022-12-29T06:01:25;97462.16;;;10.16;100.00
34586;BME280;20816;50.950;11.108;2022-12-29T06:03:55;97470.03;;;10.16;100.00
34586;BME280;20816;50.950;11.108;2022-12-29T06:06:22;97456.06;;;10.16;100.00
34586;BME280;20816;50.950;11.108;2022-12-29T06:08:48;97414.91;;;10.16;100.00
34586;BME280;20816;50.950;11.108;2022-12-29T06:11:15;97439.13;;;10.01;100.00
34586;BME280;20816;50.950;11.108;2022-12-29T06:13:42;97431.94;;;10.06;100.00
34586;BME280;20816;50.950;11.108;2022-12-29T06:16:11;97450.78;;;9.94;100.00
34586;BME280;20816;50.950;11.108;2022-12-29T06:18:40;97450.53;;;10.00;100.00
34586;BME280;20816;50.950;11.108;2022-12-29T06:21:06;97451.09;;;9.84;100.00
34586;BME280;20816;50.950;11.108;2022-12-29T06:23:34;97451.28;;;9.80;100.00
34586;BME280;20816;50.950;11.108;2022-12-29T06:26:01;97445.47;;;9.72;100.00
34586;BME280;20816;50.950;11.108;2022-12-29T06:28:27;97452.94;;;9.82;100.00
34586;BME280;20816;50.950;11.108;2022-12-29T06:31:09;97463.56;;;9.79;100.00
34586;BME280;20816;50.950;11.108;2022-12-29T06:33:37;97455.91;;;9.97;100.00
34586;BME280;20816;50.950;11.108;2022-12-29T06:36:04;97459.31;;;9.99;100.00
34586;BME280;20816;50.950;11.108;2022-12-29T06:38:31;97459.09;;;10.05;100.00
34586;BME280;20816;50.950;11.108;2022-12-29T06:41:05;97468.16;;;10.20;100.00
34586;BME280;20816;50.950;11.108;2022-12-29T06:43:32;97465.47;;;10.21;100.00
34586;BME280;20816;50.950;11.108;2022-12-29T06:46:00;97451.31;;;10.25;100.00
34586;BME280;20816;50.950;11.108;2022-12-29T06:48:26;97470.63;;;10.24;100.00
34586;BME280;20816;50.950;11.108;2022-12-29T06:50:53;97466.56;;;10.39;100.00
34586;BME280;20816;50.950;11.108;2022-12-29T06:53:20;97467.09;;;10.25;100.00
34586;BME280;20816;50.950;11.108;2022-12-29T06:55:56;97462.94;;;10.42;100.00
34586;BME280;20816;50.950;11.108;2022-12-29T06:58:23;97469.94;;;10.43;100.00
34586;BME280;20816;50.950;11.108;2022-12-29T07:00:50;97454.66;;;10.52;100.00
34586;BME280;20816;50.950;11.108;2022-12-29T07:03:17;97442.75;;;10.44;100.00
34586;BME280;20816;50.950;11.108;2022-12-29T07:05:43;97426.44;;;10.35;100.00
34586;BME280;20816;50.950;11.108;2022-12-29T07:08:12;97441.69;;;10.26;100.00
34586;BME280;20816;50.950;11.108;2022-12-29T07:10:40;97448.19;;;10.16;100.00
34586;BME280;20816;50.950;11.108;2022-12-29T07:13:06;97451.31;;;10.25;100.00
34586;BME280;20816;50.950;11.108;2022-12-29T07:15:36;97451.22;;;10.28;100.00
34586;BME280;20816;50.950;11.108;2022-12-29T07:18:03;97450.88;;;10.37;100.00
34586;BME280;20816;50.950;11.108;2022-12-29T07:20:37;97454.97;;;10.45;100.00
34586;BME280;20816;50.950;11.108;2022-12-29T07:23:04;97451.22;;;10.50;100.00
34586;BME280;20816;50.950;11.108;2022-12-29T07:25:30;97461.78;;;10.49;100.00
34586;BME280;20816;50.950;11.108;2022-12-29T07:27:57;97462.47;;;10.54;100.00
34586;BME280;20816;50.950;11.108;2022-12-29T07:30:24;97441.94;;;10.63;99.64
34586;BME280;20816;50.950;11.108;2022-12-29T07:33:00;97449.75;;;10.65;99.86
34586;BME280;20816;50.950;11.108;2022-12-29T07:35:27;97442.53;;;10.70;99.35
34586;BME280;20816;50.950;11.108;2022-12-29T07:37:54;97430.19;;;10.72;99.75
34586;BME280;20816;50.950;11.108;2022-12-29T07:40:20;97448.03;;;10.64;100.00
34586;BME280;20816;50.950;11.108;2022-12-29T07:42:47;97460.94;;;10.70;100.00
34586;BME280;20816;50.950;11.108;2022-12-29T07:45:14;97452.38;;;10.65;100.00
34586;BME280;20816;50.950;11.108;2022-12-29T07:47:43;97459.00;;;10.75;100.00
34586;BME280;20816;50.950;11.108;2022-12-29T07:50:11;97459.09;;;10.72;100.00
34586;BME280;20816;50.950;11.108;2022-12-29T07:52:38;97463.69;;;10.67;100.00
34586;BME280;20816;50.950;11.108;2022-12-29T07:55:05;97452.44;;;10.63;100.00
34586;BME280;20816;50.950;11.108;2022-12-29T07:57:32;97466.34;;;10.67;100.00
34586;BME280;20816;50.950;11.108;2022-12-29T07:59:59;97461.66;;;10.74;100.00
34586;BME280;20816;50.950;11.108;2022-12-29T08:02:28;97458.31;;;10.70;100.00
34586;BME280;20816;50.950;11.108;2022-12-29T08:04:56;97453.06;;;10.70;100.00
34586;BME280;20816;50.950;11.108;2022-12-29T08:07:22;97453.19;;;10.67;100.00
34586;BME280;20816;50.950;11.108;2022-12-29T08:09:49;97451.72;;;10.60;100.00
34586;BME280;20816;50.950;11.108;2022-12-29T08:12:16;97454.09;;;10.66;100.00
34586;BME280;20816;50.950;11.108;2022-12-29T08:14:44;97456.41;;;10.74;100.00
34586;BME280;20816;50.950;11.108;2022-12-29T08:17:18;97443.41;;;10.71;100.00
34586;BME280;20816;50.950;11.108;2022-12-29T08:19:44;97446.81;;;10.73;100.00
34586;BME280;20816;50.950;11.108;2022-12-29T08:22:13;97451.34;;;10.69;100.00
34586;BME280;20816;50.950;11.108;2022-12-29T08:24:40;97432.09;;;10.69;100.00
34586;BME280;20816;50.950;11.108;2022-12-29T08:27:06;97454.91;;;10.68;100.00
34586;BME280;20816;50.950;11.108;2022-12-29T08:29:45;97463.19;;;10.79;100.00
34586;BME280;20816;50.950;11.108;2022-12-29T08:32:12;97458.53;;;10.86;99.70
34586;BME280;20816;50.950;11.108;2022-12-29T08:34:39;97434.41;;;10.97;98.93
34586;BME280;20816;50.950;11.108;2022-12-29T08:37:05;97433.00;;;11.10;98.04
34586;BME280;20816;50.950;11.108;2022-12-29T08:39:40;97440.16;;;11.06;97.82
34586;BME280;20816;50.950;11.108;2022-12-29T08:42:06;97445.16;;;11.12;97.09
34586;BME280;20816;50.950;11.108;2022-12-29T08:44:33;97447.00;;;11.10;97.34
34586;BME280;20816;50.950;11.108;2022-12-29T08:47:00;97439.28;;;11.06;97.50
34586;BME280;20816;50.950;11.108;2022-12-29T08:49:27;97434.72;;;11.11;97.38
34586;BME280;20816;50.950;11.108;2022-12-29T08:52:01;97427.06;;;11.05;97.68
34586;BME280;20816;50.950;11.108;2022-12-29T08:54:27;97442.59;;;11.11;98.13
34586;BME280;20816;50.950;11.108;2022-12-29T08:56:54;97427.88;;;11.27;96.75
34586;BME280;20816;50.950;11.108;2022-12-29T08:59:21;97443.38;;;11.33;96.84
34586;BME280;20816;50.950;11.108;2022-12-29T09:01:50;97446.94;;;11.32;96.55
34586;BME280;20816;50.950;11.108;2022-12-29T09:04:21;97429.16;;;11.37;96.29
34586;BME280;20816;50.950;11.108;2022-12-29T09:06:50;97429.31;;;11.34;95.89
34586;BME280;20816;50.950;11.108;2022-12-29T09:09:16;97436.28;;;11.35;96.48
34586;BME280;20816;50.950;11.108;2022-12-29T09:11:43;97439.69;;;11.37;96.55
34586;BME280;20816;50.950;11.108;2022-12-29T09:14:11;97429.16;;;11.37;95.98
34586;BME280;20816;50.950;11.108;2022-12-29T09:16:45;97444.16;;;11.35;96.12
34586;BME280;20816;50.950;11.108;2022-12-29T09:19:31;97442.25;;;11.39;95.90
34586;BME280;20816;50.950;11.108;2022-12-29T09:22:05;97443.09;;;11.39;96.29
34586;BME280;20816;50.950;11.108;2022-12-29T09:24:32;97449.34;;;11.37;96.42
34586;BME280;20816;50.950;11.108;2022-12-29T09:26:59;97453.16;;;11.30;97.06
34586;BME280;20816;50.950;11.108;2022-12-29T09:29:25;97448.75;;;11.30;96.85
34586;BME280;20816;50.950;11.108;2022-12-29T09:31:52;97462.00;;;11.29;96.75
34586;BME280;20816;50.950;11.108;2022-12-29T09:34:19;97473.50;;;11.26;97.38
34586;BME280;20816;50.950;11.108;2022-12-29T09:36:49;97461.28;;;11.25;97.33
34586;BME280;20816;50.950;11.108;2022-12-29T09:39:16;97467.25;;;11.29;96.48
34586;BME280;20816;50.950;11.108;2022-12-29T09:42:08;97484.28;;;11.20;97.44
34586;BME280;20816;50.950;11.108;2022-12-29T09:45:14;97471.91;;;11.22;97.14
34586;BME280;20816;50.950;11.108;2022-12-29T09:47:43;97473.34;;;11.29;96.54
34586;BME280;20816;50.950;11.108;2022-12-29T09:50:23;97460.41;;;11.25;97.24
34586;BME280;20816;50.950;11.108;2022-12-29T09:55:46;97452.72;;;11.20;97.19
34586;BME280;20816;50.950;11.108;2022-12-29T09:58:21;97446.19;;;11.29;97.17
34586;BME280;20816;50.950;11.108;2022-12-29T10:03:48;97446.81;;;11.35;97.28
34586;BME280;20816;50.950;11.108;2022-12-29T10:06:24;97449.94;;;11.43;96.14
34586;BME280;20816;50.950;11.108;2022-12-29T10:14:21;97453.94;;;11.52;94.68
34586;BME280;20816;50.950;11.108;2022-12-29T10:20:18;97459.06;;;11.55;94.96
34586;BME280;20816;50.950;11.108;2022-12-29T10:23:07;97461.66;;;11.57;94.40
34586;BME280;20816;50.950;11.108;2022-12-29T10:25:38;97453.75;;;11.57;94.89
34586;BME280;20816;50.950;11.108;2022-12-29T10:28:18;97467.47;;;11.63;94.42
34586;BME280;20816;50.950;11.108;2022-12-29T10:30:47;97464.22;;;11.58;94.64
34586;BME280;20816;50.950;11.108;2022-12-29T10:33:18;97473.88;;;11.58;94.30
34586;BME280;20816;50.950;11.108;2022-12-29T10:35:47;97462.28;;;11.62;93.94
34586;BME280;20816;50.950;11.108;2022-12-29T10:38:39;97463.72;;;11.69;93.74
34586;BME280;20816;50.950;11.108;2022-12-29T10:41:15;97469.25;;;11.63;93.91
34586;BME280;20816;50.950;11.108;2022-12-29T10:43:51;97465.50;;;11.68;93.92
34586;BME280;20816;50.950;11.108;2022-12-29T10:46:35;97464.81;;;11.65;94.39
34586;BME280;20816;50.950;11.108;2022-12-29T10:49:04;97474.66;;;11.60;94.76
34586;BME280;20816;50.950;11.108;2022-12-29T10:51:39;97478.31;;;11.57;94.77
34586;BME280;20816;50.950;11.108;2022-12-29T10:54:33;97467.97;;;11.52;95.56
34586;BME280;20816;50.950;11.108;2022-12-29T10:57:08;97462.44;;;11.59;95.66
34586;BME280;20816;50.950;11.108;2022-12-29T10:59:37;97461.25;;;11.66;95.44
34586;BME280;20816;50.950;11.108;2022-12-29T11:02:25;97463.22;;;11.61;96.08
34586;BME280;20816;50.950;11.108;2022-12-29T11:05:02;97454.97;;;11.68;95.46
34586;BME280;20816;50.950;11.108;2022-12-29T11:07:33;97447.53;;;11.78;94.77
34586;BME280;20816;50.950;11.108;2022-12-29T11:10:19;97463.47;;;11.75;94.58
34586;BME280;20816;50.950;11.108;2022-12-29T11:13:02;97466.66;;;11.83;94.09
34586;BME280;20816;50.950;11.108;2022-12-29T11:15:40;97463.75;;;11.89;93.90
34586;BME280;20816;50.950;11.108;2022-12-29T11:18:20;97467.78;;;11.96;93.50
34586;BME280;20816;50.950;11.108;2022-12-29T11:20:49;97468.69;;;11.95;93.59
34586;BME280;20816;50.950;11.108;2022-12-29T11:23:46;97475.97;;;11.90;94.22
34586;BME280;20816;50.950;11.108;2022-12-29T11:28:38;97463.31;;;11.78;94.18
34586;BME280;20816;50.950;11.108;2022-12-29T11:31:06;97463.59;;;11.92;94.13
34586;BME280;20816;50.950;11.108;2022-12-29T11:33:36;97467.16;;;11.91;94.24
34586;BME280;20816;50.950;11.108;2022-12-29T11:38:35;97466.72;;;12.00;92.81
34586;BME280;20816;50.950;11.108;2022-12-29T11:41:09;97464.59;;;12.09;92.06
34586;BME280;20816;50.950;11.108;2022-12-29T11:43:41;97477.25;;;12.00;92.87
34586;BME280;20816;50.950;11.108;2022-12-29T11:46:33;97462.81;;;11.90;93.92
34586;BME280;20816;50.950;11.108;2022-12-29T11:49:01;97473.59;;;11.64;96.72
34586;BME280;20816;50.950;11.108;2022-12-29T11:51:33;97458.09;;;11.58;97.77
34586;BME280;20816;50.950;11.108;2022-12-29T11:54:24;97456.41;;;11.36;98.30
34586;BME280;20816;50.950;11.108;2022-12-29T11:56:49;97456.53;;;11.33;98.99
34586;BME280;20816;50.950;11.108;2022-12-29T11:59:36;97455.63;;;11.34;97.89
34586;BME280;20816;50.950;11.108;2022-12-29T12:02:31;97466.31;;;11.30;98.19
34586;BME280;20816;50.950;11.108;2022-12-29T12:05:17;97469.56;;;11.36;97.63
34586;BME280;20816;50.950;11.108;2022-12-29T12:07:59;97468.16;;;11.48;96.31
34586;BME280;20816;50.950;11.108;2022-12-29T12:10:44;97466.66;;;11.42;96.93
34586;BME280;20816;50.950;11.108;2022-12-29T12:16:15;97465.50;;;11.68;94.45
34586;BME280;20816;50.950;11.108;2022-12-29T12:18:53;97464.50;;;11.71;92.91
34586;BME280;20816;50.950;11.108;2022-12-29T12:21:36;97463.38;;;11.58;92.98
34586;BME280;20816;50.950;11.108;2022-12-29T12:27:01;97475.03;;;11.71;92.35
34586;BME280;20816;50.950;11.108;2022-12-29T12:29:50;97472.03;;;11.80;92.48
34586;BME280;20816;50.950;11.108;2022-12-29T12:32:30;97473.34;;;11.70;92.05
34586;BME280;20816;50.950;11.108;2022-12-29T12:35:04;97469.00;;;11.69;92.22
34586;BME280;20816;50.950;11.108;2022-12-29T12:37:56;97468.47;;;11.61;93.12
34586;BME280;20816;50.950;11.108;2022-12-29T12:40:34;97448.63;;;11.54;92.52
34586;BME280;20816;50.950;11.108;2022-12-29T12:54:27;97474.28;;;11.28;92.85
34586;BME280;20816;50.950;11.108;2022-12-29T12:59:46;97463.63;;;11.11;92.59
34586;BME280;20816;50.950;11.108;2022-12-29T13:08:07;97474.00;;;11.14;91.38
34586;BME280;20816;50.950;11.108;2022-12-29T13:13:15;97487.03;;;11.17;92.18
34586;BME280;20816;50.950;11.108;2022-12-29T13:15:59;97485.19;;;11.19;91.98
34586;BME280;20816;50.950;11.108;2022-12-29T13:18:56;97488.28;;;11.29;91.78
34586;BME280;20816;50.950;11.108;2022-12-29T13:21:45;97480.88;;;11.18;92.57
34586;BME280;20816;50.950;11.108;2022-12-29T13:27:34;97498.50;;;11.16;91.15
34586;BME280;20816;50.950;11.108;2022-12-29T13:30:16;97496.50;;;11.21;91.59
34586;BME280;20816;50.950;11.108;2022-12-29T13:33:07;97521.03;;;11.21;90.75
34586;BME280;20816;50.950;11.108;2022-12-29T13:35:52;97502.88;;;11.15;89.81
34586;BME280;20816;50.950;11.108;2022-12-29T13:38:38;97504.59;;;11.16;89.68
34586;BME280;20816;50.950;11.108;2022-12-29T13:41:12;97507.28;;;11.15;88.79
34586;BME280;20816;50.950;11.108;2022-12-29T13:43:42;97506.41;;;11.14;88.82
34586;BME280;20816;50.950;11.108;2022-12-29T13:46:26;97514.28;;;11.16;88.31
34586;BME280;20816;50.950;11.108;2022-12-29T13:49:15;97511.75;;;11.13;87.49
34586;BME280;20816;50.950;11.108;2022-12-29T13:51:55;97528.81;;;11.03;87.90
34586;BME280;20816;50.950;11.108;2022-12-29T13:54:45;97521.84;;;11.02;87.90
34586;BME280;20816;50.950;11.108;2022-12-29T13:58:07;97521.06;;;11.00;87.90
34586;BME280;20816;50.950;11.108;2022-12-29T14:00:26;97523.72;;;11.00;87.62
34586;BME280;20816;50.950;11.108;2022-12-29T14:06:14;97533.59;;;10.93;87.41
34586;BME280;20816;50.950;11.108;2022-12-29T14:08:42;97533.78;;;10.88;87.33
34586;BME280;20816;50.950;11.108;2022-12-29T14:11:11;97534.94;;;10.81;87.71
34586;BME280;20816;50.950;11.108;2022-12-29T14:13:45;97540.56;;;10.72;88.19
34586;BME280;20816;50.950;11.108;2022-12-29T14:16:30;97550.50;;;10.64;88.58
34586;BME280;20816;50.950;11.108;2022-12-29T14:19:26;97559.94;;;10.70;87.86
34586;BME280;20816;50.950;11.108;2022-12-29T14:22:04;97564.41;;;10.68;87.79
34586;BME280;20816;50.950;11.108;2022-12-29T14:29:49;97577.94;;;10.57;87.32
34586;BME280;20816;50.950;11.108;2022-12-29T14:34:57;97585.66;;;10.61;84.43
34586;BME280;20816;50.950;11.108;2022-12-29T14:37:31;97591.00;;;10.58;84.85
34586;BME280;20816;50.950;11.108;2022-12-29T14:40:25;97597.16;;;10.59;84.38